Time;durP1;ratioP1;P1;durP2;ratioP2;P2;SDS_P1;SDS_P2;PMS_P1;PMS_P2;Temp;Humidity;BMP_temperature;BMP_pressure;BME280_temperature;BME280_humidity;BME280_pressure;Samples;Min_cycle;Max_cycle;Signal;HPM_P1;HPM_P2
2023/05/16 00:21:05;;;;;;;10.20;3.58;;;15.40;84.50;;;;;;3293560;26;20064;-70
2023/05/16 00:23:33;;;;;;;4.55;3.05;;;15.50;84.30;;;;;;5002987;28;20036;-70
2023/05/16 00:26:04;;;;;;;8.18;3.72;;;15.60;84.10;;;;;;5051252;28;20041;-69
2023/05/16 00:28:31;;;;;;;6.55;3.40;;;15.60;83.80;;;;;;5039818;28;20032;-68
2023/05/16 00:30:59;;;;;;;9.25;3.45;;;15.60;83.80;;;;;;5073688;28;20036;-69
2023/05/16 00:33:26;;;;;;;7.15;3.65;;;15.70;83.60;;;;;;5070985;28;20063;-69
2023/05/16 00:35:54;;;;;;;6.10;3.42;;;15.70;83.40;;;;;;5038146;28;20044;-69
2023/05/16 00:38:21;;;;;;;7.22;3.20;;;15.70;83.10;;;;;;5083520;28;20105;-69
2023/05/16 00:40:49;;;;;;;4.05;3.08;;;15.70;83.00;;;;;;5054541;28;20071;-69
2023/05/16 00:43:16;;;;;;;7.05;3.38;;;15.70;83.20;;;;;;5056145;28;20029;-69
2023/05/16 00:45:44;;;;;;;5.88;3.45;;;15.80;83.00;;;;;;5052230;28;20052;-69
2023/05/16 00:48:15;;;;;;;7.20;3.80;;;15.80;82.70;;;;;;5050191;28;20556;-69
2023/05/16 00:50:42;;;;;;;7.43;3.58;;;15.90;82.60;;;;;;5062273;28;20036;-69
2023/05/16 00:53:10;;;;;;;7.40;3.45;;;16.00;82.40;;;;;;5046966;28;20502;-68
2023/05/16 00:55:38;;;;;;;6.32;3.15;;;16.00;82.10;;;;;;5010218;28;20040;-69
2023/05/16 00:58:06;;;;;;;6.00;3.03;;;16.00;81.60;;;;;;5035640;28;20461;-69
2023/05/16 01:00:33;;;;;;;7.43;3.50;;;16.00;81.60;;;;;;5056390;28;20032;-69
2023/05/16 01:03:01;;;;;;;6.88;3.53;;;16.10;81.40;;;;;;5052234;28;20028;-69
2023/05/16 01:05:28;;;;;;;8.80;3.40;;;16.10;81.40;;;;;;5036386;28;20071;-69
2023/05/16 01:07:56;;;;;;;6.10;3.17;;;16.20;81.30;;;;;;5036878;28;20054;-69
2023/05/16 01:10:23;;;;;;;12.52;3.70;;;16.20;80.80;;;;;;5090203;28;20485;-69
2023/05/16 01:13:01;;;;;;;5.72;2.75;;;16.20;80.70;;;;;;5073555;28;20070;-70
2023/05/16 01:15:38;;;;;;;5.13;2.38;;;16.30;80.20;;;;;;5062541;28;20036;-69
2023/05/16 01:18:26;;;;;;;4.78;2.08;;;16.30;79.00;;;;;;5039265;28;20032;-69
2023/05/16 08:21:44;;;;;;;4.75;2.28;;;17.50;61.60;;;;;;5043051;28;20188;-68
2023/05/16 08:24:12;;;;;;;4.22;2.50;;;17.50;61.90;;;;;;5043378;28;20091;-68
2023/05/16 08:26:40;;;;;;;4.65;2.35;;;17.50;62.10;;;;;;5043285;28;20044;-67
2023/05/16 08:29:07;;;;;;;6.18;3.00;;;17.50;62.10;;;;;;5047501;28;20033;-68
2023/05/16 08:31:34;;;;;;;6.97;2.80;;;17.40;62.10;;;;;;5030280;28;20122;-68
2023/05/16 08:34:05;;;;;;;6.75;2.60;;;17.40;62.70;;;;;;5037328;28;20060;-69
2023/05/16 08:36:35;;;;;;;8.48;2.80;;;17.30;62.70;;;;;;5025443;28;20041;-67
2023/05/16 08:39:03;;;;;;;8.27;2.80;;;17.30;62.60;;;;;;5044645;28;20119;-70
2023/05/16 08:41:31;;;;;;;5.32;2.65;;;17.40;62.60;;;;;;5014310;28;20102;-70
2023/05/16 08:43:58;;;;;;;3.97;2.22;;;17.30;62.90;;;;;;5047322;28;20519;-69
2023/05/16 08:46:25;;;;;;;5.28;2.90;;;17.30;63.20;;;;;;5013291;28;20040;-69
2023/05/16 08:48:54;;;;;;;9.20;3.15;;;17.30;63.30;;;;;;5012713;28;20029;-68
2023/05/16 08:51:21;;;;;;;10.10;3.53;;;17.30;63.40;;;;;;5031783;28;20478;-69
2023/05/16 08:53:57;;;;;;;10.70;3.58;;;17.30;63.40;;;;;;5048343;28;20091;-68
2023/05/16 08:56:24;;;;;;;10.00;3.25;;;17.30;63.90;;;;;;5030365;28;20025;-69
2023/05/16 08:58:54;;;;;;;12.70;3.47;;;17.30;63.60;;;;;;5025050;28;20087;-69
2023/05/16 09:01:24;;;;;;;8.27;2.80;;;17.30;64.00;;;;;;4988701;28;20428;-68
2023/05/16 09:03:52;;;;;;;7.97;3.10;;;17.20;65.60;;;;;;5030575;28;20564;-68
2023/05/16 09:06:19;;;;;;;28.23;12.23;;;17.20;65.70;;;;;;5027319;28;20953;-67
2023/05/16 09:08:46;;;;;;;9.63;4.68;;;17.20;65.50;;;;;;5047509;28;20037;-68
2023/05/16 09:11:14;;;;;;;7.97;3.85;;;17.20;65.90;;;;;;5029198;28;20398;-68
2023/05/16 09:13:41;;;;;;;6.90;3.42;;;17.20;65.60;;;;;;5029337;28;20028;-68
2023/05/16 09:16:13;;;;;;;5.93;3.38;;;17.10;66.40;;;;;;5046955;28;20111;-68
2023/05/16 09:18:54;;;;;;;6.78;3.50;;;17.10;66.60;;;;;;5025255;28;20500;-68
2023/05/16 09:21:21;;;;;;;4.70;3.00;;;17.00;66.80;;;;;;5032620;28;20079;-68
2023/05/16 09:23:52;;;;;;;5.95;3.17;;;17.00;65.90;;;;;;5078508;28;20445;-68
2023/05/16 09:26:20;;;;;;;6.18;3.30;;;17.00;65.40;;;;;;5062752;28;20040;-69
2023/05/16 09:28:48;;;;;;;9.23;4.13;;;17.10;65.40;;;;;;5033599;28;20027;-68
2023/05/16 09:31:21;;;;;;;5.78;3.10;;;17.10;65.30;;;;;;5070864;28;20036;-68
2023/05/16 09:33:49;;;;;;;10.35;3.00;;;17.10;65.20;;;;;;5084401;28;20032;-68
2023/05/16 09:36:17;;;;;;;6.50;2.88;;;17.10;65.10;;;;;;5061206;28;20451;-68
2023/05/16 09:38:45;;;;;;;6.78;3.00;;;17.10;65.40;;;;;;5047077;28;20040;-68
2023/05/16 09:41:12;;;;;;;7.13;2.95;;;17.10;65.30;;;;;;5051427;28;20062;-68
2023/05/16 09:43:40;;;;;;;8.55;3.42;;;17.10;65.60;;;;;;5036228;28;20086;-68
2023/05/16 09:46:08;;;;;;;6.47;3.15;;;17.10;65.50;;;;;;5068826;28;20494;-68
2023/05/16 09:48:35;;;;;;;6.05;2.80;;;17.10;65.30;;;;;;5070131;28;20098;-68
2023/05/16 09:51:03;;;;;;;6.78;2.90;;;17.10;65.20;;;;;;5068273;28;20037;-68
2023/05/16 10:44:37;;;;;;;10.45;3.50;;;16.70;66.60;;;;;;5073827;28;20063;-72
2023/05/16 10:47:04;;;;;;;7.53;3.63;;;16.70;66.80;;;;;;5063723;28;20490;-71
2023/05/16 10:49:32;;;;;;;10.35;3.80;;;16.70;66.70;;;;;;5053189;28;20047;-71
2023/05/16 10:52:12;;;;;;;9.57;3.22;;;16.70;66.60;;;;;;5070691;28;20064;-70
2023/05/16 10:54:40;;;;;;;;;;;16.70;66.30;;;;;;5065250;28;20124;-71
2023/05/16 10:57:10;;;;;;;8.07;3.58;;;16.60;66.30;;;;;;5071085;28;19935;-72
2023/05/16 10:59:45;;;;;;;5.70;3.40;;;16.60;66.40;;;;;;5060072;28;20094;-68
2023/05/16 11:02:31;;;;;;;10.00;3.35;;;16.70;66.50;;;;;;5068577;28;20048;-68
2023/05/16 11:04:59;;;;;;;4.68;2.58;;;16.60;66.70;;;;;;5068859;28;20039;-71
2023/05/16 11:07:33;;;;;;;8.15;2.83;;;16.70;66.90;;;;;;5048934;28;20037;-68
2023/05/16 11:10:10;;;;;;;9.32;3.28;;;16.70;66.50;;;;;;5053092;28;20070;-70
2023/05/16 11:12:48;;;;;;;5.85;2.88;;;16.60;66.30;;;;;;5061844;28;20075;-69
2023/05/16 11:15:30;;;;;;;9.10;2.85;;;16.60;65.80;;;;;;5079461;28;20093;-69
2023/05/16 11:18:15;;;;;;;7.57;3.33;;;16.60;66.00;;;;;;5063973;28;20037;-69
2023/05/16 11:20:42;;;;;;;7.50;3.13;;;16.60;66.20;;;;;;5032715;28;20036;-69
2023/05/16 11:23:23;;;;;;;8.60;3.47;;;16.60;66.40;;;;;;5042648;28;20430;-71
2023/05/16 11:25:55;;;;;;;9.23;3.28;;;16.60;66.50;;;;;;5040514;28;20060;-67
2023/05/16 11:28:26;;;;;;;7.88;3.05;;;16.60;66.70;;;;;;5067978;28;20028;-69
2023/05/16 11:30:58;;;;;;;8.93;3.30;;;16.50;67.10;;;;;;5059667;28;20354;-68
2023/05/16 11:33:28;;;;;;;6.93;3.33;;;16.50;67.40;;;;;;5065745;28;20029;-68
2023/05/16 11:36:02;;;;;;;11.45;3.00;;;16.40;67.10;;;;;;5063217;28;20103;-68
2023/05/16 11:38:32;;;;;;;9.25;3.25;;;16.30;67.40;;;;;;5068650;28;20044;-69
2023/05/16 11:41:06;;;;;;;6.78;3.28;;;16.30;68.10;;;;;;5063692;28;20337;-69
2023/05/16 11:43:44;;;;;;;7.82;3.20;;;16.20;69.90;;;;;;5071332;28;20036;-69
2023/05/16 11:59:50;;;;;;;12.18;4.32;;;15.90;72.70;;;;;;5068262;28;20539;-68
2023/05/16 12:02:17;;;;;;;21.13;4.28;;;15.90;72.90;;;;;;5075531;28;20040;-69
2023/05/16 12:04:49;;;;;;;12.95;3.97;;;15.80;73.00;;;;;;5070545;28;20066;-69
2023/05/16 12:07:16;;;;;;;9.90;4.18;;;15.80;73.10;;;;;;5051960;28;20055;-69
2023/05/16 12:09:52;;;;;;;13.55;4.40;;;15.70;73.20;;;;;;5086780;28;20043;-70
2023/05/16 12:12:21;;;;;;;9.10;4.20;;;15.70;73.40;;;;;;5074478;28;20394;-69
2023/05/16 12:14:48;;;;;;;9.30;4.10;;;15.70;73.60;;;;;;5051416;28;20059;-70
2023/05/16 12:17:16;;;;;;;8.27;3.55;;;15.70;73.70;;;;;;5069289;28;20051;-68
2023/05/16 12:19:45;;;;;;;6.82;4.20;;;15.70;74.10;;;;;;5033121;28;20044;-68
2023/05/16 12:22:19;;;;;;;9.75;4.15;;;15.70;74.40;;;;;;5054778;28;20036;-67
2023/05/16 12:24:46;;;;;;;14.45;4.63;;;15.70;74.80;;;;;;5077131;28;20374;-67
2023/05/16 12:27:20;;;;;;;11.20;3.70;;;15.70;75.10;;;;;;5066157;28;20102;-67
2023/05/16 12:29:48;;;;;;;7.57;3.85;;;15.70;75.20;;;;;;5078449;28;20486;-68
2023/05/16 12:32:21;;;;;;;8.30;4.53;;;15.70;75.10;;;;;;5073836;28;20177;-68
2023/05/16 12:34:52;;;;;;;16.30;4.65;;;15.70;75.90;;;;;;5074419;28;20032;-67
2023/05/16 12:37:21;;;;;;;13.57;4.47;;;15.60;77.70;;;;;;5057640;28;20395;-67
2023/05/16 12:39:48;;;;;;;9.15;4.43;;;15.30;79.80;;;;;;5067666;28;20387;-67
2023/05/16 12:42:16;;;;;;;8.57;3.75;;;15.00;81.60;;;;;;5056556;28;20032;-67
2023/05/16 12:44:45;;;;;;;10.25;4.05;;;14.80;82.80;;;;;;5050658;28;20032;-66
2023/05/16 12:47:12;;;;;;;9.02;3.38;;;14.70;85.00;;;;;;5087219;28;20052;-67
2023/05/16 12:49:47;;;;;;;8.75;3.42;;;14.50;85.50;;;;;;5066137;28;20503;-67
2023/05/16 12:52:20;;;;;;;10.88;3.22;;;14.40;86.80;;;;;;5075678;28;20048;-67
2023/05/16 12:54:48;;;;;;;9.68;3.28;;;14.40;88.20;;;;;;5092905;28;20040;-66
2023/05/16 12:57:15;;;;;;;14.00;3.08;;;14.40;90.00;;;;;;5091232;28;20020;-67
2023/05/16 12:59:43;;;;;;;14.68;3.25;;;14.50;91.10;;;;;;5089251;28;20047;-68
2023/05/16 13:02:10;;;;;;;19.90;3.45;;;14.70;92.20;;;;;;5086611;28;20048;-67
2023/05/16 13:04:38;;;;;;;22.92;3.80;;;14.80;92.60;;;;;;5078080;28;20042;-67
2023/05/16 13:07:05;;;;;;;25.83;4.32;;;14.90;93.00;;;;;;5093068;28;20056;-67
2023/05/16 13:09:33;;;;;;;24.55;3.45;;;14.90;93.00;;;;;;5089877;28;20032;-67
2023/05/16 13:12:00;;;;;;;24.00;3.70;;;15.00;93.30;;;;;;5091124;28;20101;-68
2023/05/16 13:14:28;;;;;;;17.15;3.45;;;15.00;93.50;;;;;;5101674;28;20490;-67
2023/05/16 13:16:55;;;;;;;12.30;2.20;;;15.00;93.50;;;;;;5086572;28;20056;-68
2023/05/16 13:19:23;;;;;;;13.60;2.53;;;15.00;93.40;;;;;;5084952;28;20028;-68
2023/05/16 13:21:50;;;;;;;7.28;1.90;;;15.00;93.30;;;;;;5090349;28;20048;-67
2023/05/16 13:24:17;;;;;;;8.70;1.70;;;14.90;93.00;;;;;;5081559;28;20031;-66
2023/05/16 13:26:45;;;;;;;8.10;1.63;;;14.80;93.40;;;;;;5091098;28;20044;-67
2023/05/16 13:29:13;;;;;;;9.32;1.77;;;14.80;93.30;;;;;;5087211;28;20109;-69
2023/05/16 13:31:40;;;;;;;9.77;2.28;;;14.80;93.80;;;;;;5064493;28;20032;-67
2023/05/16 13:34:08;;;;;;;10.48;2.00;;;14.80;94.10;;;;;;5091520;28;20399;-68
2023/05/16 13:36:35;;;;;;;22.77;2.63;;;14.80;94.70;;;;;;5074865;28;20047;-67
2023/05/16 13:39:03;;;;;;;24.58;2.85;;;14.70;95.70;;;;;;5088613;28;20029;-68
2023/05/16 13:41:32;;;;;;;15.23;2.45;;;14.70;96.40;;;;;;5088051;28;20040;-67
2023/05/16 13:43:59;;;;;;;20.38;2.85;;;14.70;96.80;;;;;;5090883;28;20028;-67
2023/05/16 13:46:27;;;;;;;32.58;2.70;;;14.60;97.00;;;;;;5091615;28;20044;-67
2023/05/16 15:23:57;;;;;;;20.83;3.08;;;13.50;97.60;;;;;;5071079;28;20062;-68
2023/05/16 15:26:25;;;;;;;29.90;3.40;;;13.50;97.60;;;;;;5093803;28;20044;-67
2023/05/16 15:28:54;;;;;;;19.85;2.53;;;13.50;97.60;;;;;;5057193;28;20029;-68
2023/05/16 15:31:22;;;;;;;21.42;2.85;;;13.50;97.60;;;;;;5086628;28;20552;-68
2023/05/16 15:33:49;;;;;;;22.08;2.88;;;13.50;97.60;;;;;;5054914;28;20471;-68
2023/05/16 15:36:17;;;;;;;26.98;3.35;;;13.40;97.60;;;;;;5067198;28;20482;-68
2023/05/16 15:38:45;;;;;;;20.65;2.83;;;13.40;97.60;;;;;;5099720;28;20023;-68
2023/05/16 15:41:14;;;;;;;21.65;2.90;;;13.40;97.50;;;;;;5094806;28;20040;-68
2023/05/16 15:43:42;;;;;;;23.35;2.95;;;13.40;97.60;;;;;;5075808;28;20108;-69
2023/05/16 15:46:10;;;;;;;23.02;3.17;;;13.50;97.60;;;;;;5075466;28;20040;-68
2023/05/16 15:48:43;;;;;;;22.08;2.47;;;13.50;97.50;;;;;;5069552;28;20036;-68
2023/05/16 15:51:14;;;;;;;16.45;2.50;;;13.50;97.60;;;;;;5073270;28;20514;-69
2023/05/16 15:53:43;;;;;;;21.55;2.80;;;13.50;97.50;;;;;;5081721;28;20040;-68
2023/05/16 15:56:10;;;;;;;26.35;3.05;;;13.40;97.50;;;;;;5058277;28;20055;-68
2023/05/16 15:58:38;;;;;;;25.83;3.05;;;13.50;97.60;;;;;;5095739;28;20035;-68
2023/05/16 16:01:05;;;;;;;20.83;2.83;;;13.50;97.50;;;;;;5085804;28;20040;-68
2023/05/16 16:03:33;;;;;;;33.08;3.13;;;13.40;97.50;;;;;;5058906;28;20028;-68
2023/05/16 16:06:00;;;;;;;24.42;3.05;;;13.40;97.50;;;;;;5077959;28;20050;-68
2023/05/16 16:08:27;;;;;;;26.50;2.85;;;13.40;97.40;;;;;;5085252;28;20036;-68
2023/05/16 16:10:58;;;;;;;25.02;2.45;;;13.50;97.50;;;;;;5092728;28;20052;-68
2023/05/16 16:13:25;;;;;;;27.42;2.95;;;13.50;97.40;;;;;;5090976;28;20032;-69
2023/05/16 16:15:52;;;;;;;25.42;3.10;;;13.40;97.40;;;;;;5081414;28;20036;-68
2023/05/16 16:18:20;;;;;;;26.75;2.80;;;13.40;97.40;;;;;;5077781;28;20119;-69
2023/05/16 16:20:48;;;;;;;25.60;3.13;;;13.40;97.50;;;;;;5072952;28;20036;-69
2023/05/16 16:23:15;;;;;;;31.55;2.67;;;13.40;97.50;;;;;;5067112;28;20040;-68
2023/05/16 16:25:42;;;;;;;23.35;2.50;;;13.40;97.50;;;;;;5091973;28;20038;-69
2023/05/16 16:28:10;;;;;;;17.38;2.65;;;13.40;97.50;;;;;;5079421;28;20382;-68
2023/05/16 16:30:37;;;;;;;20.95;2.50;;;13.40;97.50;;;;;;5092026;28;20035;-69
2023/05/16 16:33:04;;;;;;;19.48;2.85;;;13.40;97.50;;;;;;5093352;28;20115;-68
2023/05/16 16:35:32;;;;;;;23.00;2.30;;;13.30;97.40;;;;;;5091166;28;20436;-68
2023/05/16 16:38:00;;;;;;;22.88;2.80;;;13.30;97.40;;;;;;5067501;28;20106;-69
2023/05/16 16:40:27;;;;;;;25.80;2.60;;;13.20;97.30;;;;;;5109514;28;20073;-68
2023/05/16 16:42:55;;;;;;;15.35;2.45;;;13.20;97.20;;;;;;5092220;28;20040;-68
2023/05/16 16:45:22;;;;;;;21.73;2.83;;;13.10;97.10;;;;;;5106541;28;20508;-70
2023/05/16 16:47:50;;;;;;;18.48;2.50;;;13.00;97.00;;;;;;5095742;28;20059;-68
2023/05/16 16:50:18;;;;;;;25.33;2.60;;;13.10;97.00;;;;;;5096579;28;20043;-68
2023/05/16 16:52:46;;;;;;;21.58;3.08;;;13.20;97.10;;;;;;5079176;28;20088;-69
2023/05/16 16:55:13;;;;;;;15.68;2.80;;;13.30;97.00;;;;;;5106495;28;20055;-69
2023/05/16 16:57:44;;;;;;;20.45;2.45;;;13.30;96.90;;;;;;5092439;28;20398;-69
2023/05/16 17:00:12;;;;;;;22.38;2.97;;;13.30;96.90;;;;;;5073942;28;20063;-69
2023/05/16 17:02:40;;;;;;;19.85;2.78;;;13.30;96.80;;;;;;5091525;28;20032;-68
2023/05/16 17:05:08;;;;;;;20.45;2.65;;;13.30;96.70;;;;;;5090145;28;20036;-67
2023/05/16 17:07:36;;;;;;;26.63;3.08;;;13.20;96.70;;;;;;5092111;28;20119;-68
2023/05/16 17:10:03;;;;;;;21.00;3.20;;;13.20;96.80;;;;;;5071379;28;20028;-68
2023/05/16 17:12:32;;;;;;;23.10;3.30;;;13.20;96.80;;;;;;5091429;28;20032;-69
2023/05/16 17:14:59;;;;;;;19.73;2.80;;;13.20;96.80;;;;;;5071852;28;20043;-68
2023/05/16 17:17:27;;;;;;;18.20;2.67;;;13.20;96.80;;;;;;5091315;28;20032;-68
2023/05/16 17:19:54;;;;;;;29.65;3.15;;;13.20;96.80;;;;;;5091979;28;20042;-68
2023/05/16 17:22:22;;;;;;;28.80;3.28;;;13.20;96.90;;;;;;5073484;28;20029;-68
2023/05/16 17:24:49;;;;;;;32.97;3.58;;;13.10;97.20;;;;;;5090550;28;20046;-68
2023/05/16 17:27:16;;;;;;;19.63;2.67;;;13.20;97.40;;;;;;5091922;28;20126;-69
2023/05/16 17:29:44;;;;;;;22.13;3.47;;;13.20;97.50;;;;;;5091235;28;20024;-68
2023/05/16 17:32:11;;;;;;;29.10;3.13;;;13.20;97.50;;;;;;5087921;28;20448;-68
2023/05/16 17:34:39;;;;;;;23.67;2.58;;;13.20;97.50;;;;;;5086026;28;20031;-68
2023/05/16 17:37:09;;;;;;;24.48;2.75;;;13.20;97.50;;;;;;5106839;28;20039;-68
2023/05/16 17:39:36;;;;;;;20.90;2.75;;;13.00;97.50;;;;;;5095216;28;20035;-68
2023/05/16 17:42:08;;;;;;;19.92;2.50;;;13.10;97.50;;;;;;5052780;28;20033;-69
2023/05/16 17:44:36;;;;;;;25.67;3.17;;;13.00;97.50;;;;;;5079109;28;20024;-69
2023/05/16 17:47:04;;;;;;;19.50;2.80;;;13.00;97.50;;;;;;5071691;28;20495;-69
2023/05/16 17:49:31;;;;;;;28.55;2.65;;;13.00;97.50;;;;;;5098495;28;20029;-69
2023/05/16 17:51:59;;;;;;;18.80;2.33;;;13.00;97.40;;;;;;5102544;28;20126;-69
2023/05/16 17:54:29;;;;;;;27.33;2.83;;;12.90;97.40;;;;;;5101773;28;20024;-69
2023/05/16 17:56:57;;;;;;;17.42;2.30;;;12.90;97.40;;;;;;5093271;28;20039;-69
2023/05/16 17:59:26;;;;;;;23.20;2.72;;;12.90;97.30;;;;;;5093530;28;20032;-67
2023/05/16 18:01:56;;;;;;;21.55;2.80;;;12.80;97.30;;;;;;5092517;28;20042;-69
2023/05/16 18:59:15;;;;;;;23.30;2.60;;;12.60;96.30;;;;;;4685046;26;20062;-67
2023/05/16 19:01:43;;;;;;;17.00;2.28;;;12.60;96.30;;;;;;4966015;28;20043;-67
2023/05/16 19:04:10;;;;;;;14.00;2.08;;;12.50;96.30;;;;;;4953728;28;20034;-67
2023/05/16 19:06:38;;;;;;;13.73;2.03;;;12.50;96.10;;;;;;4970109;28;20498;-67
2023/05/16 19:09:06;;;;;;;19.70;2.30;;;12.50;96.00;;;;;;4973237;28;20404;-67
2023/05/16 19:11:33;;;;;;;19.50;2.65;;;12.40;95.90;;;;;;4972646;28;20039;-67
2023/05/16 19:14:01;;;;;;;14.32;2.30;;;12.50;95.90;;;;;;4956776;29;20059;-67
2023/05/16 19:16:28;;;;;;;13.20;2.13;;;12.50;96.10;;;;;;4956072;28;20031;-66
2023/05/16 19:18:56;;;;;;;9.73;1.70;;;12.50;95.90;;;;;;4937068;28;20420;-67
2023/05/16 19:21:25;;;;;;;12.73;2.17;;;12.50;96.10;;;;;;4960076;28;20035;-67
2023/05/16 19:23:52;;;;;;;22.95;3.13;;;12.40;95.90;;;;;;4949854;28;20497;-67
2023/05/16 19:26:20;;;;;;;13.85;2.05;;;12.40;95.80;;;;;;4962381;28;20086;-67
2023/05/16 19:28:48;;;;;;;13.10;2.45;;;12.40;95.60;;;;;;4946792;28;20042;-67
2023/05/16 19:31:15;;;;;;;13.15;1.80;;;12.40;95.70;;;;;;4955031;28;20038;-67
2023/05/16 19:33:42;;;;;;;14.93;2.15;;;12.40;95.50;;;;;;4955519;28;20054;-67
2023/05/16 19:36:10;;;;;;;10.75;1.70;;;12.40;95.60;;;;;;4956171;28;20127;-67
2023/05/16 19:38:38;;;;;;;10.15;1.98;;;12.40;95.60;;;;;;4955695;28;20039;-67
2023/05/16 19:41:05;;;;;;;20.25;2.45;;;12.50;95.60;;;;;;4955546;28;20410;-67
2023/05/16 19:43:33;;;;;;;12.43;2.10;;;12.40;95.30;;;;;;4938394;29;20127;-68
2023/05/16 19:46:01;;;;;;;11.32;1.90;;;12.50;95.10;;;;;;4939002;29;20138;-67
2023/05/16 19:48:28;;;;;;;13.13;2.03;;;12.40;95.00;;;;;;4955440;28;20047;-68
2023/05/16 19:50:55;;;;;;;13.80;2.70;;;12.50;95.00;;;;;;4955351;28;20461;-67
2023/05/16 19:53:23;;;;;;;17.48;2.95;;;12.50;94.80;;;;;;4955308;28;20043;-67
2023/05/16 19:55:50;;;;;;;13.70;2.15;;;12.50;94.70;;;;;;4954666;29;20421;-67
2023/05/16 19:58:18;;;;;;;13.63;2.03;;;12.50;94.70;;;;;;4948614;28;20099;-67
2023/05/16 20:00:45;;;;;;;10.77;1.88;;;12.50;94.40;;;;;;4955196;28;20031;-67
2023/05/16 20:03:13;;;;;;;17.58;2.05;;;12.50;94.60;;;;;;4953880;28;20066;-67
2023/05/16 20:05:40;;;;;;;17.13;2.60;;;12.50;94.50;;;;;;4938771;29;20047;-67
2023/05/16 20:08:08;;;;;;;15.18;2.47;;;12.60;94.60;;;;;;4954920;28;20032;-67
2023/05/16 20:10:35;;;;;;;11.88;2.42;;;12.60;94.50;;;;;;4938668;28;20528;-68
2023/05/16 20:13:03;;;;;;;15.27;2.50;;;12.60;94.70;;;;;;4955272;28;20027;-68
2023/05/16 20:15:30;;;;;;;15.77;2.55;;;12.60;94.50;;;;;;4954531;28;20122;-68
2023/05/16 20:17:58;;;;;;;8.43;2.13;;;12.60;94.60;;;;;;4955878;28;20064;-67
2023/05/16 20:20:25;;;;;;;12.45;2.10;;;12.60;94.40;;;;;;4937235;29;20400;-68
2023/05/16 20:22:53;;;;;;;7.45;1.88;;;12.70;94.30;;;;;;4953804;28;20050;-68
2023/05/16 20:25:20;;;;;;;12.27;2.00;;;12.70;94.00;;;;;;4954743;28;20035;-68
2023/05/16 20:27:48;;;;;;;11.95;1.92;;;12.70;93.90;;;;;;4938058;29;20166;-68
2023/05/16 20:30:15;;;;;;;8.43;1.80;;;12.70;94.10;;;;;;4954399;28;20393;-68
2023/05/16 20:32:42;;;;;;;11.75;2.20;;;12.70;93.90;;;;;;4936682;28;20054;-68
2023/05/16 20:35:10;;;;;;;14.52;2.00;;;12.70;94.10;;;;;;4937602;29;20042;-68
2023/05/16 20:37:37;;;;;;;8.75;1.80;;;12.70;93.80;;;;;;4936792;29;20043;-68
2023/05/16 20:40:05;;;;;;;8.70;1.70;;;12.70;93.80;;;;;;4937414;29;20389;-68
2023/05/16 20:42:33;;;;;;;11.65;1.80;;;12.70;94.00;;;;;;4936563;29;20046;-68
2023/05/16 20:45:01;;;;;;;10.10;2.75;;;12.70;93.20;;;;;;4919004;29;20036;-68
2023/05/16 20:47:28;;;;;;;11.82;2.20;;;12.70;93.70;;;;;;4953123;28;20043;-68
2023/05/16 20:49:56;;;;;;;11.60;1.90;;;12.70;93.40;;;;;;4936401;29;20035;-68
2023/05/16 21:00:57;;;;;;;11.43;2.15;;;12.70;92.60;;;;;;4931705;29;20110;-68
2023/05/16 21:03:24;;;;;;;10.50;2.08;;;12.70;92.90;;;;;;4933164;29;20039;-67
2023/05/16 21:05:52;;;;;;;11.93;2.28;;;12.70;93.00;;;;;;4931816;29;20048;-68
2023/05/16 21:08:19;;;;;;;14.45;2.63;;;12.80;93.10;;;;;;4937626;28;20039;-69
2023/05/16 21:10:46;;;;;;;9.80;2.45;;;12.80;93.10;;;;;;4916660;29;20042;-68
2023/05/16 21:13:14;;;;;;;10.23;2.28;;;12.80;93.20;;;;;;4935091;29;20512;-69
2023/05/16 21:15:41;;;;;;;15.45;2.58;;;12.80;93.20;;;;;;4935286;29;20027;-67
2023/05/16 21:18:09;;;;;;;9.40;2.72;;;12.90;93.30;;;;;;4915048;29;20028;-67
2023/05/16 21:20:36;;;;;;;11.85;2.00;;;12.90;93.00;;;;;;4937424;29;20508;-69
2023/05/16 21:23:03;;;;;;;14.32;2.00;;;12.90;92.60;;;;;;4933739;29;20463;-68
2023/05/16 21:25:31;;;;;;;11.05;2.00;;;12.90;92.50;;;;;;4935181;29;20086;-69
2023/05/16 21:27:59;;;;;;;10.32;2.10;;;12.90;92.70;;;;;;4933664;29;20043;-68
2023/05/16 21:30:26;;;;;;;14.98;2.40;;;13.00;92.70;;;;;;4914749;29;20027;-68
2023/05/16 21:32:54;;;;;;;12.85;2.33;;;13.00;92.30;;;;;;4933839;29;20051;-68
2023/05/16 21:35:22;;;;;;;13.15;2.90;;;12.90;91.70;;;;;;4930949;29;20032;-69
2023/05/16 21:37:49;;;;;;;10.07;2.53;;;13.00;92.20;;;;;;4936130;29;20044;-69
2023/05/16 21:40:23;;;;;;;8.45;1.75;;;12.90;91.70;;;;;;4949974;29;20059;-68
2023/05/16 21:42:51;;;;;;;17.48;2.47;;;12.90;91.90;;;;;;4951557;29;20092;-68
2023/05/16 21:45:19;;;;;;;10.45;2.42;;;13.00;92.00;;;;;;4945115;29;20027;-69
2023/05/16 21:47:46;;;;;;;7.50;1.60;;;13.00;91.80;;;;;;4928130;29;20047;-69
2023/05/16 21:50:14;;;;;;;6.93;1.67;;;12.90;90.70;;;;;;4931712;29;20047;-69
2023/05/16 21:52:41;;;;;;;16.95;2.35;;;13.00;91.40;;;;;;4936929;29;20106;-67
2023/05/16 21:55:09;;;;;;;8.82;2.03;;;13.00;90.90;;;;;;4935473;29;20042;-69
2023/05/16 21:57:36;;;;;;;13.77;2.28;;;13.00;91.10;;;;;;4916346;29;20111;-69
2023/05/16 22:00:08;;;;;;;19.17;3.17;;;13.00;90.50;;;;;;4951151;28;20122;-68
2023/05/16 22:02:36;;;;;;;8.35;2.20;;;13.00;90.40;;;;;;4949762;28;20031;-68
2023/05/16 22:05:03;;;;;;;10.18;2.58;;;13.20;90.40;;;;;;4938977;28;20485;-68
2023/05/16 22:07:31;;;;;;;12.50;2.10;;;13.10;89.70;;;;;;4931806;28;20126;-68
2023/05/16 22:09:58;;;;;;;8.85;2.03;;;13.10;88.80;;;;;;4954040;28;20039;-68
2023/05/16 22:12:26;;;;;;;8.30;1.65;;;13.20;88.60;;;;;;4919370;28;20035;-68
2023/05/16 22:14:54;;;;;;;8.88;1.90;;;13.20;88.70;;;;;;4920231;29;20050;-68
2023/05/16 22:17:21;;;;;;;13.43;2.40;;;13.30;89.30;;;;;;4951020;28;20617;-69
2023/05/16 22:19:49;;;;;;;10.77;2.88;;;13.30;89.60;;;;;;4936785;29;20039;-68
2023/05/16 22:22:16;;;;;;;11.32;1.83;;;13.40;89.20;;;;;;4953582;29;20023;-69
2023/05/16 22:24:44;;;;;;;13.45;2.50;;;13.40;89.40;;;;;;4951847;29;20090;-69
2023/05/16 22:27:11;;;;;;;8.35;1.67;;;13.40;87.80;;;;;;4953740;28;20409;-69
2023/05/16 22:29:39;;;;;;;10.77;2.20;;;13.50;87.00;;;;;;4953814;29;20031;-69
2023/05/16 22:32:09;;;;;;;8.43;1.90;;;13.60;87.70;;;;;;4953789;29;20378;-69
2023/05/16 22:34:39;;;;;;;14.75;2.60;;;13.60;87.30;;;;;;4936620;29;20121;-68
2023/05/16 22:37:10;;;;;;;9.27;1.70;;;13.60;86.50;;;;;;4952624;28;20034;-69
2023/05/16 22:39:37;;;;;;;9.93;1.52;;;13.60;85.60;;;;;;4952626;29;20027;-69
2023/05/16 22:42:05;;;;;;;9.45;1.90;;;13.60;84.60;;;;;;4954026;29;20036;-69
2023/05/16 22:44:32;;;;;;;6.88;1.48;;;13.60;84.30;;;;;;4955577;28;20039;-69
2023/05/16 22:47:00;;;;;;;15.00;2.30;;;13.70;85.70;;;;;;4957070;28;20047;-69
2023/05/16 22:49:27;;;;;;;8.80;2.00;;;13.70;85.80;;;;;;4957213;29;20052;-69
2023/05/16 23:14:21;;;;;;;9.90;1.90;;;13.80;85.00;;;;;;4955581;28;20094;-67
2023/05/16 23:16:49;;;;;;;10.38;2.03;;;13.80;85.30;;;;;;4956047;28;20054;-67
2023/05/16 23:19:16;;;;;;;11.88;2.03;;;13.80;85.20;;;;;;4956431;28;20047;-69
2023/05/16 23:21:43;;;;;;;10.65;2.15;;;13.90;83.50;;;;;;4955872;29;20493;-69
2023/05/16 23:24:11;;;;;;;11.07;1.70;;;13.90;83.60;;;;;;4942412;28;21109;-69
2023/05/16 23:26:38;;;;;;;6.38;1.55;;;14.00;84.80;;;;;;4957573;28;20497;-69
2023/05/16 23:29:06;;;;;;;7.28;1.77;;;14.00;85.60;;;;;;4957964;28;20038;-69
2023/05/16 23:31:33;;;;;;;11.73;2.92;;;14.00;84.70;;;;;;4941823;29;20596;-69
2023/05/16 23:34:00;;;;;;;5.85;1.67;;;14.00;84.90;;;;;;4940547;28;20122;-68
2023/05/16 23:36:28;;;;;;;13.43;2.10;;;14.00;85.20;;;;;;4963890;28;20380;-68
2023/05/16 23:38:55;;;;;;;8.68;1.90;;;14.10;85.40;;;;;;4966667;28;20029;-69
2023/05/16 23:41:23;;;;;;;9.55;2.20;;;14.20;85.20;;;;;;4955336;29;20043;-69
2023/05/16 23:43:50;;;;;;;8.85;2.10;;;14.20;84.00;;;;;;4962280;28;20067;-69
2023/05/16 23:46:17;;;;;;;6.28;1.50;;;14.30;83.60;;;;;;4956183;28;20091;-69
2023/05/16 23:48:45;;;;;;;12.40;2.35;;;14.30;84.20;;;;;;4951559;28;21222;-69
2023/05/16 23:51:12;;;;;;;13.77;1.73;;;14.30;84.20;;;;;;4935093;29;20035;-69
2023/05/16 23:53:40;;;;;;;6.13;1.50;;;14.30;82.40;;;;;;4954833;28;20062;-70
2023/05/16 23:56:07;;;;;;;6.70;1.77;;;14.30;81.60;;;;;;4953977;28;20035;-70
2023/05/16 23:58:35;;;;;;;7.65;1.73;;;14.40;81.50;;;;;;4936460;29;20027;-70
